createdAt,value
2022-08-22T00:01:40.458Z,68.26
2022-08-22T00:06:45.723Z,68.49
2022-08-22T00:11:52.787Z,68.83
2022-08-22T00:17:00.254Z,68.61
2022-08-22T00:22:05.498Z,68.18
2022-08-22T00:27:12.264Z,68.56
2022-08-22T00:32:17.638Z,68.62
2022-08-22T00:37:25.961Z,68.18
2022-08-22T00:42:32.385Z,68.21
2022-08-22T00:47:36.017Z,68.43
2022-08-22T00:52:41.296Z,67.98
2022-08-22T00:57:46.520Z,68.47
2022-08-22T01:03:02.701Z,68.04
2022-08-22T01:08:08.861Z,68.41
2022-08-22T01:13:13.139Z,68.52
2022-08-22T01:18:18.707Z,68.52
2022-08-22T01:23:23.970Z,68.35
2022-08-22T01:28:29.296Z,68.29
2022-08-22T01:33:48.214Z,67.84
2022-08-22T01:38:53.532Z,68.38
2022-08-22T01:44:00.748Z,68.88
2022-08-22T01:49:06.402Z,68.50
2022-08-22T01:54:12.844Z,68.59
2022-08-22T01:59:33.742Z,68.71
2022-08-22T02:04:39.953Z,68.75
2022-08-22T02:09:48.347Z,68.59
2022-08-22T02:14:50.634Z,68.69
2022-08-22T02:19:56.068Z,68.50
2022-08-22T02:25:01.317Z,68.66
2022-08-22T02:30:06.618Z,68.77
2022-08-22T02:35:11.964Z,69.10
2022-08-22T02:40:20.208Z,68.69
2022-08-22T02:45:26.449Z,68.30
2022-08-22T02:50:35.536Z,68.15
2022-08-22T02:55:42.257Z,67.96
2022-08-22T03:00:49.666Z,68.20
2022-08-22T03:06:01.116Z,68.43
2022-08-22T03:11:08.542Z,67.94
2022-08-22T03:16:15.166Z,68.06
2022-08-22T03:21:17.626Z,68.38
2022-08-22T03:26:22.896Z,68.30
2022-08-22T03:31:25.788Z,68.64
2022-08-22T03:36:29.605Z,69.08
2022-08-22T03:41:52.428Z,69.08
2022-08-22T03:47:07.280Z,68.44
2022-08-22T03:52:19.789Z,67.79
2022-08-22T03:57:41.254Z,68.45
2022-08-22T04:02:47.080Z,67.99
2022-08-22T04:07:52.473Z,68.06
2022-08-22T04:13:03.451Z,67.90
2022-08-22T04:18:17.254Z,68.73
2022-08-22T04:23:27.315Z,69.23
2022-08-22T04:28:36.314Z,69.06
2022-08-22T04:33:39.562Z,68.47
2022-08-22T04:38:44.450Z,68.42
2022-08-22T04:43:49.755Z,68.15
2022-08-22T04:48:55.777Z,68.40
2022-08-22T04:53:59.492Z,68.16
2022-08-22T04:59:07.615Z,67.59
2022-08-22T05:04:15.035Z,67.29
2022-08-22T05:09:21.555Z,67.64
2022-08-22T05:14:28.246Z,67.54
2022-08-22T05:19:33.886Z,67.19
2022-08-22T05:24:39.397Z,67.41
2022-08-22T05:29:44.784Z,66.97
2022-08-22T05:34:48.346Z,66.82
2022-08-22T05:39:57.857Z,67.48
2022-08-22T05:45:01.740Z,67.88
2022-08-22T05:50:07.155Z,67.69
2022-08-22T05:55:11.576Z,67.81
2022-08-22T06:00:17.465Z,67.92
2022-08-22T06:05:26.737Z,67.86
2022-08-22T06:10:35.985Z,68.17
2022-08-22T06:15:45.058Z,68.00
2022-08-22T06:20:50.070Z,67.08
2022-08-22T06:25:53.931Z,67.22
2022-08-22T06:30:57.465Z,67.31
2022-08-22T06:36:06.175Z,68.09
2022-08-22T06:41:08.922Z,67.55
2022-08-22T06:46:14.757Z,67.47
2022-08-22T06:51:19.277Z,68.00
2022-08-22T06:56:24.296Z,67.78
2022-08-22T07:01:31.344Z,68.02
2022-08-22T07:06:36.570Z,68.41
2022-08-22T07:11:39.946Z,67.93
2022-08-22T07:16:45.262Z,67.62
2022-08-22T07:21:48.044Z,67.29
2022-08-22T07:26:50.345Z,67.95
2022-08-22T07:32:03.418Z,68.73
2022-08-22T07:37:08.079Z,67.59
2022-08-22T07:42:14.295Z,67.80
2022-08-22T07:47:26.109Z,66.49
2022-08-22T07:52:32.357Z,67.46
2022-08-22T07:57:37.287Z,66.07
2022-08-22T08:02:44.573Z,65.08
2022-08-22T08:07:47.902Z,66.61
2022-08-22T08:12:56.117Z,67.29
2022-08-22T08:18:08.678Z,66.34
2022-08-22T08:23:12.598Z,65.58
2022-08-22T08:28:18.301Z,64.24
2022-08-22T08:33:24.788Z,65.36
2022-08-22T08:38:31.535Z,66.32
2022-08-22T08:43:40.456Z,64.53
2022-08-22T08:48:45.819Z,66.25
2022-08-22T08:53:50.995Z,63.70
2022-08-22T08:59:02.421Z,63.54
2022-08-22T09:04:16.074Z,61.26
2022-08-22T09:09:20.284Z,61.35
2022-08-22T09:14:26.963Z,61.35
2022-08-22T09:19:32.518Z,61.65
2022-08-22T09:24:37.811Z,61.70
2022-08-22T09:29:55.164Z,59.92
2022-08-22T09:35:05.856Z,61.55
2022-08-22T09:40:17.479Z,63.58
2022-08-22T09:45:34.589Z,62.96
2022-08-22T09:50:41.254Z,62.81
2022-08-22T09:55:44.970Z,60.79
2022-08-22T10:00:55.495Z,61.91
2022-08-22T10:06:00.756Z,62.46
2022-08-22T10:11:09.642Z,61.71
2022-08-22T10:16:12.430Z,61.17
2022-08-22T10:21:18.587Z,60.30
2022-08-22T10:26:29.384Z,62.74
2022-08-22T10:31:34.906Z,59.49
2022-08-22T10:36:50.383Z,63.69
2022-08-22T10:41:54.622Z,60.39
2022-08-22T10:47:00.198Z,63.47
2022-08-22T10:52:15.234Z,60.98
2022-08-22T10:57:21.515Z,59.89
2022-08-22T11:02:35.214Z,61.86
2022-08-22T11:07:44.580Z,59.78
2022-08-22T11:12:54.129Z,62.14
2022-08-22T11:17:57.953Z,62.37
2022-08-22T11:23:13.238Z,58.62
2022-08-22T11:28:25.250Z,60.74
2022-08-22T11:33:46.341Z,56.56
2022-08-22T11:38:52.741Z,59.59
2022-08-22T11:43:58.381Z,60.79
2022-08-22T11:49:09.110Z,60.53
2022-08-22T11:54:19.640Z,60.16
2022-08-22T11:59:40.981Z,58.57
2022-08-22T12:04:50.985Z,60.72
2022-08-22T12:09:59.199Z,63.16
2022-08-22T12:15:04.665Z,59.33
2022-08-22T12:20:16.259Z,59.82
2022-08-22T12:25:20.264Z,57.12
2022-08-22T12:30:31.196Z,61.85
2022-08-22T12:35:36.508Z,54.98
2022-08-22T12:40:44.721Z,59.26
2022-08-22T12:45:59.824Z,59.04
2022-08-22T12:51:17.445Z,58.01
2022-08-22T12:56:23.133Z,59.32
2022-08-22T13:01:34.222Z,60.56
2022-08-22T13:06:37.009Z,58.01
2022-08-22T13:11:41.344Z,59.33
2022-08-22T13:16:48.868Z,58.93
2022-08-22T13:21:59.067Z,56.62
2022-08-22T13:27:05.760Z,55.94
2022-08-22T13:32:11.184Z,60.87
2022-08-22T13:37:24.347Z,58.21
2022-08-22T13:42:30.933Z,56.70
2022-08-22T13:47:35.781Z,59.71
2022-08-22T13:52:52.270Z,59.29
2022-08-22T13:58:00.468Z,55.76
2022-08-22T14:03:08.083Z,58.65
2022-08-22T14:08:18.434Z,53.19
2022-08-22T14:13:30.773Z,56.64
2022-08-22T14:18:46.199Z,58.69
2022-08-22T14:23:52.177Z,60.31
2022-08-22T14:28:57.185Z,60.60
2022-08-22T14:34:02.289Z,57.07
2022-08-22T14:39:24.631Z,59.18
2022-08-22T14:44:29.923Z,62.55
2022-08-22T14:49:48.181Z,57.78
2022-08-22T14:55:06.225Z,59.87
2022-08-22T15:00:12.499Z,62.63
2022-08-22T15:05:18.050Z,56.87
2022-08-22T15:10:23.001Z,59.65
2022-08-22T15:15:28.562Z,62.55
2022-08-22T15:20:36.278Z,55.02
2022-08-22T15:25:42.676Z,56.26
2022-08-22T15:31:09.315Z,55.41
2022-08-22T15:36:15.795Z,53.94
2022-08-22T15:41:22.091Z,55.29
2022-08-22T15:46:29.637Z,55.76
2022-08-22T15:51:36.422Z,54.61
2022-08-22T15:56:42.913Z,55.53
2022-08-22T16:01:50.897Z,53.59
2022-08-22T16:06:58.059Z,52.24
2022-08-22T16:12:02.024Z,49.44
2022-08-22T16:17:04.316Z,51.18
2022-08-22T16:22:07.831Z,50.95
2022-08-22T16:27:13.130Z,54.09
2022-08-22T16:32:23.018Z,56.94
2022-08-22T16:37:25.297Z,59.55
2022-08-22T16:42:34.787Z,61.32
2022-08-22T16:47:52.804Z,63.23
2022-08-22T16:53:05.343Z,58.43
2022-08-22T16:58:10.665Z,59.86
2022-08-22T17:03:13.969Z,62.61
2022-08-22T17:08:25.503Z,60.14
2022-08-22T17:13:32.771Z,58.47
2022-08-22T17:18:44.898Z,61.83
2022-08-22T17:23:50.144Z,61.93
2022-08-22T17:28:55.439Z,58.69
2022-08-22T17:34:01.546Z,62.34
2022-08-22T17:39:06.813Z,61.69
2022-08-22T17:44:12.026Z,58.97
2022-08-22T17:49:19.546Z,63.38
2022-08-22T17:54:29.827Z,60.50
2022-08-22T17:59:39.728Z,59.89
2022-08-22T18:04:45.618Z,63.24
2022-08-22T18:09:53.675Z,59.27
2022-08-22T18:14:59.664Z,61.59
2022-08-22T18:20:06.213Z,63.19
2022-08-22T18:25:11.542Z,58.85
2022-08-22T18:30:17.198Z,61.93
2022-08-22T18:35:24.990Z,62.82
2022-08-22T18:40:27.275Z,59.23
2022-08-22T18:45:44.117Z,59.85
2022-08-22T18:50:47.543Z,63.62
2022-08-22T18:55:55.968Z,60.69
2022-08-22T19:01:01.267Z,58.56
2022-08-22T19:06:03.588Z,63.63
2022-08-22T19:11:15.043Z,62.14
2022-08-22T19:16:17.370Z,59.22
2022-08-22T19:21:25.442Z,63.54
2022-08-22T19:26:30.744Z,62.07
2022-08-22T19:31:35.066Z,59.54
2022-08-22T19:36:37.965Z,62.25
2022-08-22T19:41:43.948Z,64.77
2022-08-22T19:46:58.651Z,61.23
2022-08-22T19:52:11.752Z,59.24
2022-08-22T19:57:34.272Z,61.47
2022-08-22T20:02:51.346Z,64.22
2022-08-22T20:07:56.588Z,61.51
2022-08-22T20:13:00.822Z,59.98
2022-08-22T20:23:29.393Z,65.54
2022-08-22T20:28:35.553Z,63.72
2022-08-22T20:33:39.775Z,61.51
2022-08-22T20:38:55.733Z,60.00
2022-08-22T20:44:18.818Z,60.37
2022-08-22T20:49:23.577Z,62.90
2022-08-22T20:54:28.469Z,60.59
2022-08-22T20:59:30.815Z,59.41
2022-08-22T21:04:42.480Z,61.95
2022-08-22T21:09:56.006Z,64.63
2022-08-22T21:14:58.326Z,61.88
2022-08-22T21:20:03.771Z,60.68
2022-08-22T21:25:06.226Z,60.04
2022-08-22T21:30:09.175Z,59.04
2022-08-22T21:35:31.551Z,64.21
2022-08-22T21:40:35.702Z,62.42
2022-08-22T21:45:38.041Z,60.62
2022-08-22T21:50:41.214Z,59.52
2022-08-22T21:55:44.495Z,62.66
2022-08-22T22:01:07.175Z,64.53
2022-08-22T22:06:12.937Z,61.94
2022-08-22T22:11:15.427Z,60.73
2022-08-22T22:16:22.516Z,60.19
2022-08-22T22:21:24.857Z,59.74
2022-08-22T22:26:28.489Z,64.50
2022-08-22T22:31:31.523Z,62.69
2022-08-22T22:36:55.225Z,61.33
2022-08-22T22:41:57.552Z,60.88
2022-08-22T22:47:02.108Z,60.20
2022-08-22T22:52:04.914Z,59.69
2022-08-22T22:57:07.210Z,59.80
2022-08-22T23:02:16.995Z,59.68
2022-08-22T23:07:20.063Z,59.71
2022-08-22T23:12:23.449Z,60.27
2022-08-22T23:17:25.871Z,60.43
2022-08-22T23:22:30.029Z,60.61
2022-08-22T23:27:32.402Z,60.70
2022-08-22T23:32:36.647Z,60.81
2022-08-22T23:37:39.005Z,61.06
2022-08-22T23:42:41.712Z,60.64
2022-08-22T23:47:44.018Z,60.00
2022-08-22T23:52:46.627Z,58.80
2022-08-22T23:57:48.943Z,60.75
